sensor_id;sensor_type;location;lat;lon;timestamp;P1;durP1;ratioP1;P2;durP2;ratioP2
18610;SDS011;9435;52.122;5.502;2023-04-22T00:00:38;16.50;;;10.43;;
18610;SDS011;9435;52.122;5.502;2023-04-22T00:03:06;14.90;;;9.20;;
18610;SDS011;9435;52.122;5.502;2023-04-22T00:05:34;14.48;;;9.73;;
18610;SDS011;9435;52.122;5.502;2023-04-22T00:08:03;13.80;;;8.80;;
18610;SDS011;9435;52.122;5.502;2023-04-22T00:10:30;10.93;;;7.63;;
18610;SDS011;9435;52.122;5.502;2023-04-22T00:12:57;12.55;;;7.80;;
18610;SDS011;9435;52.122;5.502;2023-04-22T00:15:24;14.55;;;7.95;;
18610;SDS011;9435;52.122;5.502;2023-04-22T00:17:52;11.35;;;7.43;;
18610;SDS011;9435;52.122;5.502;2023-04-22T00:20:19;9.35;;;6.30;;
18610;SDS011;9435;52.122;5.502;2023-04-22T00:22:46;9.13;;;6.47;;
18610;SDS011;9435;52.122;5.502;2023-04-22T00:25:15;10.35;;;7.00;;
18610;SDS011;9435;52.122;5.502;2023-04-22T00:27:43;19.33;;;11.38;;
18610;SDS011;9435;52.122;5.502;2023-04-22T00:30:10;17.30;;;10.73;;
18610;SDS011;9435;52.122;5.502;2023-04-22T00:32:37;16.25;;;10.10;;
18610;SDS011;9435;52.122;5.502;2023-04-22T00:35:05;13.25;;;8.77;;
18610;SDS011;9435;52.122;5.502;2023-04-22T00:37:32;13.65;;;8.65;;
18610;SDS011;9435;52.122;5.502;2023-04-22T00:39:59;11.95;;;8.13;;
18610;SDS011;9435;52.122;5.502;2023-04-22T00:42:28;14.88;;;9.15;;
18610;SDS011;9435;52.122;5.502;2023-04-22T00:44:56;14.15;;;9.45;;
18610;SDS011;9435;52.122;5.502;2023-04-22T00:47:23;16.35;;;9.95;;
18610;SDS011;9435;52.122;5.502;2023-04-22T00:49:52;17.65;;;10.13;;
18610;SDS011;9435;52.122;5.502;2023-04-22T00:52:19;17.23;;;10.35;;
18610;SDS011;9435;52.122;5.502;2023-04-22T00:54:46;15.80;;;9.48;;
18610;SDS011;9435;52.122;5.502;2023-04-22T00:57:14;18.63;;;10.48;;
18610;SDS011;9435;52.122;5.502;2023-04-22T00:59:43;16.75;;;10.63;;
18610;SDS011;9435;52.122;5.502;2023-04-22T01:02:11;18.67;;;10.48;;
18610;SDS011;9435;52.122;5.502;2023-04-22T01:04:39;15.18;;;9.57;;
18610;SDS011;9435;52.122;5.502;2023-04-22T01:07:06;14.48;;;9.10;;
18610;SDS011;9435;52.122;5.502;2023-04-22T01:09:33;14.07;;;9.27;;
18610;SDS011;9435;52.122;5.502;2023-04-22T01:12:02;16.98;;;10.00;;
18610;SDS011;9435;52.122;5.502;2023-04-22T01:14:29;16.83;;;10.95;;
18610;SDS011;9435;52.122;5.502;2023-04-22T01:16:58;18.05;;;10.70;;
18610;SDS011;9435;52.122;5.502;2023-04-22T01:19:25;16.80;;;11.10;;
18610;SDS011;9435;52.122;5.502;2023-04-22T01:21:53;20.73;;;11.43;;
18610;SDS011;9435;52.122;5.502;2023-04-22T01:24:22;17.38;;;10.35;;
18610;SDS011;9435;52.122;5.502;2023-04-22T01:26:49;16.27;;;10.30;;
18610;SDS011;9435;52.122;5.502;2023-04-22T01:29:16;17.67;;;10.52;;
18610;SDS011;9435;52.122;5.502;2023-04-22T01:31:44;64.43;;;7.63;;
18610;SDS011;9435;52.122;5.502;2023-04-22T01:34:12;26.13;;;6.45;;
18610;SDS011;9435;52.122;5.502;2023-04-22T01:36:39;10.43;;;5.90;;
18610;SDS011;9435;52.122;5.502;2023-04-22T01:39:06;10.93;;;6.15;;
18610;SDS011;9435;52.122;5.502;2023-04-22T01:41:34;10.00;;;6.50;;
18610;SDS011;9435;52.122;5.502;2023-04-22T01:44:01;9.48;;;6.55;;
18610;SDS011;9435;52.122;5.502;2023-04-22T01:46:29;10.63;;;7.25;;
18610;SDS011;9435;52.122;5.502;2023-04-22T01:48:56;14.73;;;8.93;;
18610;SDS011;9435;52.122;5.502;2023-04-22T01:51:23;12.20;;;8.30;;
18610;SDS011;9435;52.122;5.502;2023-04-22T01:53:50;12.70;;;7.68;;
18610;SDS011;9435;52.122;5.502;2023-04-22T01:56:17;10.77;;;6.80;;
18610;SDS011;9435;52.122;5.502;2023-04-22T01:58:45;9.55;;;6.60;;
18610;SDS011;9435;52.122;5.502;2023-04-22T02:01:12;9.63;;;6.32;;
18610;SDS011;9435;52.122;5.502;2023-04-22T02:03:39;9.45;;;6.20;;
18610;SDS011;9435;52.122;5.502;2023-04-22T02:06:07;9.43;;;6.55;;
18610;SDS011;9435;52.122;5.502;2023-04-22T02:08:34;9.68;;;6.15;;
18610;SDS011;9435;52.122;5.502;2023-04-22T02:11:01;6.82;;;4.70;;
18610;SDS011;9435;52.122;5.502;2023-04-22T02:13:33;7.65;;;5.30;;
18610;SDS011;9435;52.122;5.502;2023-04-22T02:16:02;16.83;;;7.35;;
18610;SDS011;9435;52.122;5.502;2023-04-22T02:18:29;9.10;;;6.28;;
18610;SDS011;9435;52.122;5.502;2023-04-22T02:20:57;8.60;;;6.10;;
18610;SDS011;9435;52.122;5.502;2023-04-22T02:23:24;6.60;;;5.30;;
18610;SDS011;9435;52.122;5.502;2023-04-22T02:25:52;6.60;;;4.75;;
18610;SDS011;9435;52.122;5.502;2023-04-22T02:28:20;6.50;;;4.70;;
18610;SDS011;9435;52.122;5.502;2023-04-22T02:30:47;8.25;;;5.63;;
18610;SDS011;9435;52.122;5.502;2023-04-22T02:33:16;8.98;;;6.13;;
18610;SDS011;9435;52.122;5.502;2023-04-22T02:35:43;8.85;;;6.20;;
18610;SDS011;9435;52.122;5.502;2023-04-22T02:38:10;8.38;;;5.85;;
18610;SDS011;9435;52.122;5.502;2023-04-22T02:40:37;9.50;;;5.05;;
18610;SDS011;9435;52.122;5.502;2023-04-22T02:43:04;28.25;;;4.93;;
18610;SDS011;9435;52.122;5.502;2023-04-22T02:45:32;122.45;;;5.95;;
18610;SDS011;9435;52.122;5.502;2023-04-22T02:48:00;5.20;;;4.15;;
18610;SDS011;9435;52.122;5.502;2023-04-22T02:50:28;10.27;;;5.10;;
18610;SDS011;9435;52.122;5.502;2023-04-22T02:52:55;9.05;;;5.07;;
18610;SDS011;9435;52.122;5.502;2023-04-22T02:55:22;5.65;;;4.50;;
18610;SDS011;9435;52.122;5.502;2023-04-22T02:57:49;5.80;;;4.60;;
18610;SDS011;9435;52.122;5.502;2023-04-22T03:00:16;6.93;;;4.75;;
18610;SDS011;9435;52.122;5.502;2023-04-22T03:02:43;7.53;;;5.32;;
18610;SDS011;9435;52.122;5.502;2023-04-22T03:05:10;10.13;;;5.85;;
18610;SDS011;9435;52.122;5.502;2023-04-22T03:07:40;8.52;;;5.53;;
18610;SDS011;9435;52.122;5.502;2023-04-22T03:10:07;6.55;;;5.30;;
18610;SDS011;9435;52.122;5.502;2023-04-22T03:12:34;8.10;;;5.35;;
18610;SDS011;9435;52.122;5.502;2023-04-22T03:15:02;10.85;;;5.90;;
18610;SDS011;9435;52.122;5.502;2023-04-22T03:17:29;7.80;;;6.00;;
18610;SDS011;9435;52.122;5.502;2023-04-22T03:19:56;8.68;;;6.47;;
18610;SDS011;9435;52.122;5.502;2023-04-22T03:22:23;6.90;;;5.72;;
18610;SDS011;9435;52.122;5.502;2023-04-22T03:24:51;6.75;;;5.22;;
18610;SDS011;9435;52.122;5.502;2023-04-22T03:27:18;11.32;;;6.25;;
18610;SDS011;9435;52.122;5.502;2023-04-22T03:29:45;8.73;;;6.10;;
18610;SDS011;9435;52.122;5.502;2023-04-22T03:32:12;8.45;;;5.68;;
18610;SDS011;9435;52.122;5.502;2023-04-22T03:34:39;11.07;;;6.97;;
18610;SDS011;9435;52.122;5.502;2023-04-22T03:37:06;9.73;;;6.40;;
18610;SDS011;9435;52.122;5.502;2023-04-22T03:39:34;8.20;;;6.22;;
18610;SDS011;9435;52.122;5.502;2023-04-22T03:42:02;7.55;;;5.82;;
18610;SDS011;9435;52.122;5.502;2023-04-22T03:44:29;7.70;;;5.72;;
18610;SDS011;9435;52.122;5.502;2023-04-22T03:46:56;8.57;;;6.40;;
18610;SDS011;9435;52.122;5.502;2023-04-22T03:49:23;10.00;;;6.88;;
18610;SDS011;9435;52.122;5.502;2023-04-22T03:51:50;10.85;;;6.95;;
18610;SDS011;9435;52.122;5.502;2023-04-22T03:54:17;10.82;;;7.47;;
18610;SDS011;9435;52.122;5.502;2023-04-22T03:56:45;10.35;;;7.10;;
18610;SDS011;9435;52.122;5.502;2023-04-22T03:59:13;10.52;;;7.28;;
18610;SDS011;9435;52.122;5.502;2023-04-22T04:01:40;11.40;;;7.60;;
18610;SDS011;9435;52.122;5.502;2023-04-22T04:04:07;12.73;;;7.82;;
18610;SDS011;9435;52.122;5.502;2023-04-22T04:06:34;11.60;;;8.25;;
18610;SDS011;9435;52.122;5.502;2023-04-22T04:09:02;12.20;;;8.52;;
18610;SDS011;9435;52.122;5.502;2023-04-22T04:11:29;12.77;;;8.40;;
18610;SDS011;9435;52.122;5.502;2023-04-22T04:13:57;11.68;;;8.30;;
18610;SDS011;9435;52.122;5.502;2023-04-22T04:16:25;10.65;;;8.05;;
18610;SDS011;9435;52.122;5.502;2023-04-22T04:18:52;15.10;;;9.63;;
18610;SDS011;9435;52.122;5.502;2023-04-22T04:21:19;13.98;;;8.65;;
18610;SDS011;9435;52.122;5.502;2023-04-22T04:23:46;12.10;;;8.20;;
18610;SDS011;9435;52.122;5.502;2023-04-22T04:26:13;12.88;;;7.97;;
18610;SDS011;9435;52.122;5.502;2023-04-22T04:28:40;11.57;;;7.57;;
18610;SDS011;9435;52.122;5.502;2023-04-22T04:31:07;12.48;;;7.70;;
18610;SDS011;9435;52.122;5.502;2023-04-22T04:33:36;13.63;;;8.25;;
18610;SDS011;9435;52.122;5.502;2023-04-22T04:36:03;13.60;;;8.82;;
18610;SDS011;9435;52.122;5.502;2023-04-22T04:38:32;12.73;;;8.13;;
18610;SDS011;9435;52.122;5.502;2023-04-22T04:40:59;10.98;;;7.60;;
18610;SDS011;9435;52.122;5.502;2023-04-22T04:43:28;11.30;;;7.78;;
18610;SDS011;9435;52.122;5.502;2023-04-22T04:45:55;11.75;;;8.05;;
18610;SDS011;9435;52.122;5.502;2023-04-22T04:48:22;12.30;;;7.70;;
18610;SDS011;9435;52.122;5.502;2023-04-22T04:50:52;11.68;;;7.22;;
18610;SDS011;9435;52.122;5.502;2023-04-22T04:53:20;11.65;;;7.88;;
18610;SDS011;9435;52.122;5.502;2023-04-22T04:55:47;13.13;;;7.70;;
18610;SDS011;9435;52.122;5.502;2023-04-22T04:58:14;14.35;;;8.63;;
18610;SDS011;9435;52.122;5.502;2023-04-22T05:00:41;15.05;;;8.30;;
18610;SDS011;9435;52.122;5.502;2023-04-22T05:03:08;12.88;;;8.50;;
18610;SDS011;9435;52.122;5.502;2023-04-22T05:05:35;12.93;;;8.10;;
18610;SDS011;9435;52.122;5.502;2023-04-22T05:08:05;12.52;;;8.10;;
18610;SDS011;9435;52.122;5.502;2023-04-22T05:10:32;12.70;;;8.23;;
18610;SDS011;9435;52.122;5.502;2023-04-22T05:12:59;17.13;;;9.25;;
18610;SDS011;9435;52.122;5.502;2023-04-22T05:15:26;14.68;;;8.82;;
18610;SDS011;9435;52.122;5.502;2023-04-22T05:17:53;12.73;;;8.65;;
18610;SDS011;9435;52.122;5.502;2023-04-22T05:20:20;12.30;;;8.20;;
18610;SDS011;9435;52.122;5.502;2023-04-22T05:22:47;14.63;;;8.38;;
18610;SDS011;9435;52.122;5.502;2023-04-22T05:25:15;13.98;;;8.93;;
18610;SDS011;9435;52.122;5.502;2023-04-22T05:27:42;15.80;;;9.45;;
18610;SDS011;9435;52.122;5.502;2023-04-22T05:30:09;14.27;;;9.40;;
18610;SDS011;9435;52.122;5.502;2023-04-22T05:32:37;17.27;;;9.90;;
18610;SDS011;9435;52.122;5.502;2023-04-22T05:35:04;15.93;;;9.38;;
18610;SDS011;9435;52.122;5.502;2023-04-22T05:37:31;14.45;;;9.65;;
18610;SDS011;9435;52.122;5.502;2023-04-22T05:39:59;11.98;;;8.20;;
18610;SDS011;9435;52.122;5.502;2023-04-22T05:42:27;11.50;;;8.05;;
18610;SDS011;9435;52.122;5.502;2023-04-22T05:44:54;10.25;;;7.18;;
18610;SDS011;9435;52.122;5.502;2023-04-22T05:47:21;11.63;;;7.80;;
18610;SDS011;9435;52.122;5.502;2023-04-22T05:49:48;13.45;;;8.75;;
18610;SDS011;9435;52.122;5.502;2023-04-22T05:52:15;12.68;;;8.82;;
18610;SDS011;9435;52.122;5.502;2023-04-22T05:54:42;14.00;;;9.45;;
18610;SDS011;9435;52.122;5.502;2023-04-22T05:57:09;17.60;;;9.52;;
18610;SDS011;9435;52.122;5.502;2023-04-22T05:59:38;15.93;;;10.10;;
18610;SDS011;9435;52.122;5.502;2023-04-22T06:02:05;15.95;;;9.50;;
18610;SDS011;9435;52.122;5.502;2023-04-22T06:04:32;16.33;;;10.38;;
18610;SDS011;9435;52.122;5.502;2023-04-22T06:06:59;21.48;;;11.20;;
18610;SDS011;9435;52.122;5.502;2023-04-22T06:09:26;15.13;;;10.20;;
18610;SDS011;9435;52.122;5.502;2023-04-22T06:11:55;20.58;;;11.48;;
18610;SDS011;9435;52.122;5.502;2023-04-22T06:14:26;18.80;;;11.70;;
18610;SDS011;9435;52.122;5.502;2023-04-22T06:16:54;19.55;;;11.60;;
18610;SDS011;9435;52.122;5.502;2023-04-22T06:19:21;19.83;;;11.85;;
18610;SDS011;9435;52.122;5.502;2023-04-22T06:21:48;21.33;;;11.77;;
18610;SDS011;9435;52.122;5.502;2023-04-22T06:24:15;21.77;;;12.27;;
18610;SDS011;9435;52.122;5.502;2023-04-22T06:26:42;23.13;;;13.77;;
18610;SDS011;9435;52.122;5.502;2023-04-22T06:29:09;25.00;;;15.00;;
18610;SDS011;9435;52.122;5.502;2023-04-22T06:31:36;28.92;;;16.23;;
18610;SDS011;9435;52.122;5.502;2023-04-22T06:34:05;33.72;;;17.90;;
18610;SDS011;9435;52.122;5.502;2023-04-22T06:36:32;42.53;;;20.95;;
18610;SDS011;9435;52.122;5.502;2023-04-22T06:39:01;44.13;;;22.25;;
18610;SDS011;9435;52.122;5.502;2023-04-22T06:41:29;41.42;;;21.58;;
18610;SDS011;9435;52.122;5.502;2023-04-22T06:43:56;52.15;;;24.50;;
18610;SDS011;9435;52.122;5.502;2023-04-22T06:46:24;61.45;;;27.52;;
18610;SDS011;9435;52.122;5.502;2023-04-22T06:48:51;65.25;;;30.10;;
18610;SDS011;9435;52.122;5.502;2023-04-22T06:51:19;60.40;;;30.20;;
18610;SDS011;9435;52.122;5.502;2023-04-22T06:53:46;63.88;;;31.10;;
18610;SDS011;9435;52.122;5.502;2023-04-22T06:56:13;70.45;;;33.40;;
18610;SDS011;9435;52.122;5.502;2023-04-22T06:58:40;64.22;;;30.77;;
18610;SDS011;9435;52.122;5.502;2023-04-22T07:01:07;63.88;;;31.80;;
18610;SDS011;9435;52.122;5.502;2023-04-22T07:03:34;68.47;;;33.88;;
18610;SDS011;9435;52.122;5.502;2023-04-22T07:06:01;74.63;;;37.35;;
18610;SDS011;9435;52.122;5.502;2023-04-22T07:08:30;73.45;;;36.47;;
18610;SDS011;9435;52.122;5.502;2023-04-22T07:10:58;74.13;;;37.55;;
18610;SDS011;9435;52.122;5.502;2023-04-22T07:13:25;77.15;;;37.55;;
18610;SDS011;9435;52.122;5.502;2023-04-22T07:15:53;78.80;;;37.97;;
18610;SDS011;9435;52.122;5.502;2023-04-22T07:18:20;70.13;;;36.65;;
18610;SDS011;9435;52.122;5.502;2023-04-22T07:20:47;70.35;;;35.90;;
18610;SDS011;9435;52.122;5.502;2023-04-22T07:23:14;68.90;;;35.63;;
18610;SDS011;9435;52.122;5.502;2023-04-22T07:25:42;67.20;;;35.25;;
18610;SDS011;9435;52.122;5.502;2023-04-22T07:28:09;59.90;;;33.58;;
18610;SDS011;9435;52.122;5.502;2023-04-22T07:30:36;65.53;;;35.38;;
18610;SDS011;9435;52.122;5.502;2023-04-22T07:33:03;64.95;;;33.95;;
18610;SDS011;9435;52.122;5.502;2023-04-22T07:35:30;59.72;;;32.22;;
18610;SDS011;9435;52.122;5.502;2023-04-22T07:37:57;62.13;;;33.85;;
18610;SDS011;9435;52.122;5.502;2023-04-22T07:40:24;62.55;;;33.58;;
18610;SDS011;9435;52.122;5.502;2023-04-22T07:42:53;61.47;;;32.20;;
18610;SDS011;9435;52.122;5.502;2023-04-22T07:45:20;51.38;;;30.15;;
18610;SDS011;9435;52.122;5.502;2023-04-22T07:47:47;49.70;;;29.08;;
18610;SDS011;9435;52.122;5.502;2023-04-22T07:50:14;49.90;;;28.48;;
18610;SDS011;9435;52.122;5.502;2023-04-22T07:52:41;46.80;;;27.52;;
18610;SDS011;9435;52.122;5.502;2023-04-22T07:55:09;48.30;;;28.08;;
18610;SDS011;9435;52.122;5.502;2023-04-22T07:57:36;46.38;;;27.13;;
18610;SDS011;9435;52.122;5.502;2023-04-22T08:00:06;48.10;;;27.30;;
18610;SDS011;9435;52.122;5.502;2023-04-22T08:02:34;43.25;;;26.05;;
18610;SDS011;9435;52.122;5.502;2023-04-22T08:05:01;40.10;;;24.52;;
18610;SDS011;9435;52.122;5.502;2023-04-22T08:07:28;45.42;;;25.90;;
18610;SDS011;9435;52.122;5.502;2023-04-22T08:09:55;42.83;;;24.75;;
18610;SDS011;9435;52.122;5.502;2023-04-22T08:12:22;38.53;;;23.27;;
18610;SDS011;9435;52.122;5.502;2023-04-22T08:14:49;38.38;;;24.40;;
18610;SDS011;9435;52.122;5.502;2023-04-22T08:17:17;41.80;;;23.85;;
18610;SDS011;9435;52.122;5.502;2023-04-22T08:19:46;38.55;;;23.52;;
18610;SDS011;9435;52.122;5.502;2023-04-22T08:22:13;35.75;;;22.38;;
18610;SDS011;9435;52.122;5.502;2023-04-22T08:24:41;33.85;;;20.30;;
18610;SDS011;9435;52.122;5.502;2023-04-22T08:27:08;33.28;;;19.40;;
18610;SDS011;9435;52.122;5.502;2023-04-22T08:29:36;31.02;;;18.70;;
18610;SDS011;9435;52.122;5.502;2023-04-22T08:32:03;31.30;;;18.55;;
18610;SDS011;9435;52.122;5.502;2023-04-22T08:34:31;29.00;;;17.65;;
18610;SDS011;9435;52.122;5.502;2023-04-22T08:36:58;29.73;;;17.40;;
18610;SDS011;9435;52.122;5.502;2023-04-22T08:39:25;25.55;;;16.10;;
18610;SDS011;9435;52.122;5.502;2023-04-22T08:41:52;26.63;;;17.73;;
18610;SDS011;9435;52.122;5.502;2023-04-22T08:44:20;27.25;;;16.73;;
18610;SDS011;9435;52.122;5.502;2023-04-22T08:46:48;27.25;;;17.52;;
18610;SDS011;9435;52.122;5.502;2023-04-22T08:49:16;25.08;;;16.70;;
18610;SDS011;9435;52.122;5.502;2023-04-22T08:51:45;23.20;;;15.20;;
18610;SDS011;9435;52.122;5.502;2023-04-22T08:54:12;24.35;;;15.75;;
18610;SDS011;9435;52.122;5.502;2023-04-22T08:56:39;23.80;;;15.18;;
18610;SDS011;9435;52.122;5.502;2023-04-22T08:59:08;25.73;;;15.15;;
18610;SDS011;9435;52.122;5.502;2023-04-22T09:01:36;25.95;;;16.20;;
18610;SDS011;9435;52.122;5.502;2023-04-22T09:04:05;27.23;;;17.25;;
18610;SDS011;9435;52.122;5.502;2023-04-22T09:06:34;25.45;;;16.67;;
18610;SDS011;9435;52.122;5.502;2023-04-22T09:09:04;25.35;;;16.35;;
18610;SDS011;9435;52.122;5.502;2023-04-22T09:11:32;23.60;;;15.77;;
18610;SDS011;9435;52.122;5.502;2023-04-22T09:14:00;24.90;;;16.58;;
18610;SDS011;9435;52.122;5.502;2023-04-22T09:16:28;25.08;;;15.70;;
18610;SDS011;9435;52.122;5.502;2023-04-22T09:18:56;22.85;;;15.73;;
18610;SDS011;9435;52.122;5.502;2023-04-22T09:21:24;24.15;;;16.00;;
18610;SDS011;9435;52.122;5.502;2023-04-22T09:23:52;22.60;;;15.00;;
18610;SDS011;9435;52.122;5.502;2023-04-22T09:26:22;23.40;;;15.35;;
18610;SDS011;9435;52.122;5.502;2023-04-22T09:28:51;22.92;;;15.40;;
18610;SDS011;9435;52.122;5.502;2023-04-22T09:31:20;24.83;;;15.68;;
18610;SDS011;9435;52.122;5.502;2023-04-22T09:33:48;21.42;;;15.13;;
18610;SDS011;9435;52.122;5.502;2023-04-22T09:36:16;24.20;;;15.13;;
18610;SDS011;9435;52.122;5.502;2023-04-22T09:38:53;23.88;;;15.02;;
18610;SDS011;9435;52.122;5.502;2023-04-22T09:41:29;21.92;;;15.13;;
18610;SDS011;9435;52.122;5.502;2023-04-22T09:43:57;23.20;;;15.13;;
18610;SDS011;9435;52.122;5.502;2023-04-22T09:46:26;23.25;;;14.82;;
18610;SDS011;9435;52.122;5.502;2023-04-22T09:48:55;25.40;;;15.15;;
18610;SDS011;9435;52.122;5.502;2023-04-22T09:51:24;23.95;;;15.40;;
18610;SDS011;9435;52.122;5.502;2023-04-22T09:53:59;20.80;;;13.77;;
18610;SDS011;9435;52.122;5.502;2023-04-22T09:56:46;20.05;;;13.65;;
18610;SDS011;9435;52.122;5.502;2023-04-22T09:59:14;21.15;;;13.35;;
18610;SDS011;9435;52.122;5.502;2023-04-22T10:01:45;20.35;;;12.90;;
18610;SDS011;9435;52.122;5.502;2023-04-22T10:04:12;22.40;;;13.68;;
18610;SDS011;9435;52.122;5.502;2023-04-22T10:06:40;18.35;;;12.57;;
18610;SDS011;9435;52.122;5.502;2023-04-22T10:09:08;19.58;;;12.38;;
18610;SDS011;9435;52.122;5.502;2023-04-22T10:11:36;18.55;;;12.00;;
18610;SDS011;9435;52.122;5.502;2023-04-22T10:14:06;18.88;;;11.80;;
18610;SDS011;9435;52.122;5.502;2023-04-22T10:16:34;17.63;;;11.68;;
18610;SDS011;9435;52.122;5.502;2023-04-22T10:19:03;18.02;;;11.77;;
18610;SDS011;9435;52.122;5.502;2023-04-22T10:21:33;16.55;;;11.52;;
18610;SDS011;9435;52.122;5.502;2023-04-22T10:24:01;15.77;;;10.02;;
18610;SDS011;9435;52.122;5.502;2023-04-22T10:26:40;17.02;;;11.13;;
18610;SDS011;9435;52.122;5.502;2023-04-22T10:29:11;18.88;;;11.75;;
18610;SDS011;9435;52.122;5.502;2023-04-22T10:31:41;16.65;;;11.55;;
18610;SDS011;9435;52.122;5.502;2023-04-22T10:34:10;14.50;;;10.27;;
18610;SDS011;9435;52.122;5.502;2023-04-22T10:36:54;15.00;;;10.68;;
18610;SDS011;9435;52.122;5.502;2023-04-22T10:39:23;15.40;;;10.40;;
18610;SDS011;9435;52.122;5.502;2023-04-22T10:42:03;15.02;;;10.63;;
18610;SDS011;9435;52.122;5.502;2023-04-22T10:44:48;17.77;;;11.35;;
18610;SDS011;9435;52.122;5.502;2023-04-22T10:47:26;15.80;;;10.73;;
18610;SDS011;9435;52.122;5.502;2023-04-22T10:50:07;18.83;;;10.95;;
18610;SDS011;9435;52.122;5.502;2023-04-22T10:52:39;17.80;;;11.75;;
18610;SDS011;9435;52.122;5.502;2023-04-22T10:55:07;16.88;;;10.40;;
18610;SDS011;9435;52.122;5.502;2023-04-22T10:57:38;14.40;;;9.60;;
18610;SDS011;9435;52.122;5.502;2023-04-22T11:00:27;15.70;;;10.18;;
18610;SDS011;9435;52.122;5.502;2023-04-22T11:03:08;15.45;;;10.23;;
18610;SDS011;9435;52.122;5.502;2023-04-22T11:05:40;15.15;;;10.30;;
18610;SDS011;9435;52.122;5.502;2023-04-22T11:08:11;15.90;;;10.65;;
18610;SDS011;9435;52.122;5.502;2023-04-22T11:10:41;16.23;;;11.70;;
18610;SDS011;9435;52.122;5.502;2023-04-22T11:13:10;18.13;;;12.00;;
18610;SDS011;9435;52.122;5.502;2023-04-22T11:15:41;17.58;;;12.48;;
18610;SDS011;9435;52.122;5.502;2023-04-22T11:18:09;20.40;;;13.15;;
18610;SDS011;9435;52.122;5.502;2023-04-22T11:20:42;19.38;;;13.35;;
18610;SDS011;9435;52.122;5.502;2023-04-22T11:23:09;20.17;;;14.00;;
18610;SDS011;9435;52.122;5.502;2023-04-22T11:25:36;19.98;;;13.68;;
18610;SDS011;9435;52.122;5.502;2023-04-22T11:28:03;20.38;;;14.57;;
18610;SDS011;9435;52.122;5.502;2023-04-22T11:30:30;20.95;;;13.63;;
18610;SDS011;9435;52.122;5.502;2023-04-22T11:32:59;19.15;;;14.02;;
18610;SDS011;9435;52.122;5.502;2023-04-22T11:35:28;19.85;;;13.85;;
18610;SDS011;9435;52.122;5.502;2023-04-22T11:37:56;18.20;;;13.52;;
18610;SDS011;9435;52.122;5.502;2023-04-22T11:40:26;20.33;;;14.80;;
18610;SDS011;9435;52.122;5.502;2023-04-22T11:42:55;20.15;;;14.95;;
18610;SDS011;9435;52.122;5.502;2023-04-22T11:45:23;21.58;;;15.20;;
18610;SDS011;9435;52.122;5.502;2023-04-22T11:47:50;21.55;;;15.07;;
18610;SDS011;9435;52.122;5.502;2023-04-22T11:50:21;22.73;;;14.60;;
18610;SDS011;9435;52.122;5.502;2023-04-22T11:52:50;24.50;;;16.20;;
18610;SDS011;9435;52.122;5.502;2023-04-22T11:55:19;22.98;;;16.77;;
18610;SDS011;9435;52.122;5.502;2023-04-22T11:57:52;21.60;;;15.18;;
18610;SDS011;9435;52.122;5.502;2023-04-22T12:00:21;25.50;;;17.05;;
18610;SDS011;9435;52.122;5.502;2023-04-22T12:02:56;25.30;;;16.27;;
18610;SDS011;9435;52.122;5.502;2023-04-22T12:05:32;25.10;;;16.90;;
18610;SDS011;9435;52.122;5.502;2023-04-22T12:08:07;25.73;;;16.80;;
18610;SDS011;9435;52.122;5.502;2023-04-22T12:10:40;23.58;;;16.80;;
18610;SDS011;9435;52.122;5.502;2023-04-22T12:13:09;25.45;;;17.17;;
18610;SDS011;9435;52.122;5.502;2023-04-22T12:15:41;23.90;;;16.77;;
18610;SDS011;9435;52.122;5.502;2023-04-22T12:18:08;26.52;;;17.58;;
18610;SDS011;9435;52.122;5.502;2023-04-22T12:20:38;25.42;;;18.10;;
18610;SDS011;9435;52.122;5.502;2023-04-22T12:23:10;28.23;;;17.88;;
18610;SDS011;9435;52.122;5.502;2023-04-22T12:25:39;28.30;;;17.70;;
18610;SDS011;9435;52.122;5.502;2023-04-22T12:28:07;25.05;;;17.33;;
18610;SDS011;9435;52.122;5.502;2023-04-22T12:30:35;28.27;;;17.90;;
18610;SDS011;9435;52.122;5.502;2023-04-22T12:33:02;26.05;;;16.90;;
18610;SDS011;9435;52.122;5.502;2023-04-22T12:35:30;27.92;;;17.77;;
18610;SDS011;9435;52.122;5.502;2023-04-22T12:37:59;26.65;;;18.27;;
18610;SDS011;9435;52.122;5.502;2023-04-22T12:40:27;29.50;;;18.02;;
18610;SDS011;9435;52.122;5.502;2023-04-22T12:42:54;26.95;;;17.63;;
18610;SDS011;9435;52.122;5.502;2023-04-22T12:45:21;27.08;;;17.63;;
18610;SDS011;9435;52.122;5.502;2023-04-22T12:47:49;26.23;;;18.52;;
18610;SDS011;9435;52.122;5.502;2023-04-22T12:50:17;28.95;;;18.33;;
18610;SDS011;9435;52.122;5.502;2023-04-22T12:52:45;26.23;;;18.00;;
18610;SDS011;9435;52.122;5.502;2023-04-22T12:55:13;25.02;;;16.38;;
18610;SDS011;9435;52.122;5.502;2023-04-22T12:57:40;29.52;;;18.15;;
18610;SDS011;9435;52.122;5.502;2023-04-22T13:00:08;31.85;;;18.90;;
18610;SDS011;9435;52.122;5.502;2023-04-22T13:02:38;31.15;;;20.50;;
18610;SDS011;9435;52.122;5.502;2023-04-22T13:05:07;30.30;;;19.70;;
18610;SDS011;9435;52.122;5.502;2023-04-22T13:07:34;31.35;;;19.77;;
18610;SDS011;9435;52.122;5.502;2023-04-22T13:10:02;29.23;;;19.27;;
18610;SDS011;9435;52.122;5.502;2023-04-22T13:12:31;27.45;;;17.95;;
18610;SDS011;9435;52.122;5.502;2023-04-22T13:14:59;25.90;;;17.73;;
18610;SDS011;9435;52.122;5.502;2023-04-22T13:17:27;26.08;;;17.52;;
18610;SDS011;9435;52.122;5.502;2023-04-22T13:19:55;28.35;;;17.42;;
18610;SDS011;9435;52.122;5.502;2023-04-22T13:22:22;26.27;;;16.88;;
18610;SDS011;9435;52.122;5.502;2023-04-22T13:24:49;26.60;;;17.48;;
18610;SDS011;9435;52.122;5.502;2023-04-22T13:27:16;25.17;;;17.13;;
18610;SDS011;9435;52.122;5.502;2023-04-22T13:29:45;26.33;;;17.33;;
18610;SDS011;9435;52.122;5.502;2023-04-22T13:32:12;27.65;;;18.42;;
18610;SDS011;9435;52.122;5.502;2023-04-22T13:34:39;27.40;;;18.00;;
18610;SDS011;9435;52.122;5.502;2023-04-22T13:37:06;25.25;;;16.92;;
18610;SDS011;9435;52.122;5.502;2023-04-22T13:39:33;30.15;;;19.02;;
18610;SDS011;9435;52.122;5.502;2023-04-22T13:42:00;29.30;;;18.05;;
18610;SDS011;9435;52.122;5.502;2023-04-22T13:44:28;30.65;;;18.92;;
18610;SDS011;9435;52.122;5.502;2023-04-22T13:46:56;27.38;;;18.83;;
18610;SDS011;9435;52.122;5.502;2023-04-22T13:49:23;31.67;;;19.15;;
18610;SDS011;9435;52.122;5.502;2023-04-22T13:51:51;29.35;;;19.27;;
18610;SDS011;9435;52.122;5.502;2023-04-22T13:54:18;29.30;;;19.13;;
18610;SDS011;9435;52.122;5.502;2023-04-22T13:56:45;31.90;;;20.45;;
18610;SDS011;9435;52.122;5.502;2023-04-22T13:59:12;31.52;;;19.90;;
18610;SDS011;9435;52.122;5.502;2023-04-22T14:01:39;32.20;;;20.70;;
18610;SDS011;9435;52.122;5.502;2023-04-22T14:04:09;32.67;;;20.83;;
18610;SDS011;9435;52.122;5.502;2023-04-22T14:06:36;33.22;;;21.80;;
18610;SDS011;9435;52.122;5.502;2023-04-22T14:09:04;32.90;;;20.83;;
18610;SDS011;9435;52.122;5.502;2023-04-22T14:11:31;32.83;;;21.02;;
18610;SDS011;9435;52.122;5.502;2023-04-22T14:13:58;33.47;;;21.38;;
18610;SDS011;9435;52.122;5.502;2023-04-22T14:16:25;32.97;;;21.50;;
18610;SDS011;9435;52.122;5.502;2023-04-22T14:18:52;31.63;;;20.50;;
18610;SDS011;9435;52.122;5.502;2023-04-22T14:21:21;33.92;;;20.38;;
18610;SDS011;9435;52.122;5.502;2023-04-22T14:23:48;30.02;;;19.65;;
18610;SDS011;9435;52.122;5.502;2023-04-22T14:26:15;31.52;;;20.80;;
18610;SDS011;9435;52.122;5.502;2023-04-22T14:28:42;31.92;;;20.90;;
18610;SDS011;9435;52.122;5.502;2023-04-22T14:31:09;31.95;;;20.77;;
18610;SDS011;9435;52.122;5.502;2023-04-22T14:33:39;29.38;;;19.92;;
18610;SDS011;9435;52.122;5.502;2023-04-22T14:36:06;30.48;;;20.50;;
18610;SDS011;9435;52.122;5.502;2023-04-22T14:38:34;31.75;;;21.90;;
18610;SDS011;9435;52.122;5.502;2023-04-22T14:41:02;28.08;;;19.33;;
18610;SDS011;9435;52.122;5.502;2023-04-22T14:43:30;32.25;;;20.80;;
18610;SDS011;9435;52.122;5.502;2023-04-22T14:45:58;32.78;;;19.67;;